Tipton, IN

2:07 AM EDT on July 21, 2017 (GMT -0400)
Tipton, In 46072 | | Change Station

Elev 876 ft 40.29 °N, 86.05 °W | Updated 8 seconds ago

Mostly Cloudy
Mostly Cloudy
79.3 °F
Feels Like 85 °F
N
1.0
Wind Variable Wind from SSW

Today
High -- | Low -- °F
--% Chance of Precip.
Yesterday
High -- | Low -- °F
Precip. -- in
Pressure 29.96 in
Visibility 8.0 miles
Clouds Mostly Cloudy 4300 ft
Heat Index 85 °F
Dew Point 78 °F
Humidity 98%
Rainfall 0.00 in
Snow Depth Not available.
6:32 AM 9:08 PM
Waning Crescent, 7% visible
METAR KOKK 210556Z AUTO 00000KT 8SM BKN043 26/25 A2997 RMK AO2 SLP144 60000 T02610250 10294 20256 56003
Pressure 29.96 in
Visibility 8.0 miles
Clouds Mostly Cloudy 4300 ft
Heat Index 85 °F
Dew Point 78 °F
Humidity 98%
Rainfall 0.00 in
Snow Depth Not available.
6:32 AM 9:08 PM
Waning Crescent, 7% visible
METAR KOKK 210556Z AUTO 00000KT 8SM BKN043 26/25 A2997 RMK AO2 SLP144 60000 T02610250 10294 20256 56003

Get Severe Weather Alerts

Thanks for signing up!

Be on the lookout for a verification email in your inbox.

You'll start receiving the daily forecast at 6 AM.

×

10-Day Weather Forecast

Almanac

Astronomy

Jul. 21, 2017 Rise Set
Actual Time
Civil Twilight
Nautical Twilight
Astronomical Twilight
Moon
Length of Visible Light
Length of Day
Tomorrow will be .
, % of the Moon is Illuminated

Today's Extremes

State Highs State Lows

Community

WunderPhotos

Category 6

Welcome to Category 6. This is the collective home for Weather Underground's featured writeups by Dr. Jeff Masters (right), Bob Henson (left), Chris Burt, and other regular contributors.

Nearby

Air Quality

  Air Quality AQ Index Pollutant
Not available.

Snow Depth

Station Depth Elevation

Earthquake Activity

City Distance Mag. Time & Date
Minimum magnitude displayed is 2.5.

Coastal Water Temperatures

Place Temperature

Stations

Nearby Weather Stations

Station Location Temp. Windchill Dew Point Humidity Wind Precip. Elev Updated Type
                   

Watches & Warnings

There are currently no watches in effect.